sensor_id;sensor_type;location;lat;lon;timestamp;P1;durP1;ratioP1;P2;durP2;ratioP2
64875;SDS011;51369;49.862;9.908;2023-09-08T00:00:30;12.35;;;4.85;;
64875;SDS011;51369;49.862;9.908;2023-09-08T00:02:55;8.85;;;4.80;;
64875;SDS011;51369;49.862;9.908;2023-09-08T00:05:21;10.60;;;4.80;;
64875;SDS011;51369;49.862;9.908;2023-09-08T00:07:46;10.27;;;4.82;;
64875;SDS011;51369;49.862;9.908;2023-09-08T00:10:11;6.35;;;4.93;;
64875;SDS011;51369;49.862;9.908;2023-09-08T00:12:37;10.45;;;5.32;;
64875;SDS011;51369;49.862;9.908;2023-09-08T00:15:03;12.27;;;5.93;;
64875;SDS011;51369;49.862;9.908;2023-09-08T00:17:29;7.68;;;4.97;;
64875;SDS011;51369;49.862;9.908;2023-09-08T00:19:54;8.73;;;4.95;;
64875;SDS011;51369;49.862;9.908;2023-09-08T00:22:22;12.77;;;5.40;;
64875;SDS011;51369;49.862;9.908;2023-09-08T00:24:47;9.02;;;5.20;;
64875;SDS011;51369;49.862;9.908;2023-09-08T00:27:14;7.57;;;4.50;;
64875;SDS011;51369;49.862;9.908;2023-09-08T00:29:40;6.75;;;4.85;;
64875;SDS011;51369;49.862;9.908;2023-09-08T00:32:06;5.22;;;4.20;;
64875;SDS011;51369;49.862;9.908;2023-09-08T00:34:31;6.22;;;4.25;;
64875;SDS011;51369;49.862;9.908;2023-09-08T00:36:57;8.57;;;5.03;;
64875;SDS011;51369;49.862;9.908;2023-09-08T00:39:22;5.78;;;4.80;;
64875;SDS011;51369;49.862;9.908;2023-09-08T00:41:48;8.65;;;5.38;;
64875;SDS011;51369;49.862;9.908;2023-09-08T00:44:14;8.15;;;4.60;;
64875;SDS011;51369;49.862;9.908;2023-09-08T00:46:39;8.77;;;5.70;;
64875;SDS011;51369;49.862;9.908;2023-09-08T00:49:05;5.15;;;4.65;;
64875;SDS011;51369;49.862;9.908;2023-09-08T00:51:31;8.45;;;5.43;;
64875;SDS011;51369;49.862;9.908;2023-09-08T00:53:57;7.18;;;5.15;;
64875;SDS011;51369;49.862;9.908;2023-09-08T00:56:22;17.40;;;6.95;;
64875;SDS011;51369;49.862;9.908;2023-09-08T00:58:49;9.25;;;5.28;;
64875;SDS011;51369;49.862;9.908;2023-09-08T01:01:14;9.38;;;5.18;;
64875;SDS011;51369;49.862;9.908;2023-09-08T01:03:40;11.75;;;5.82;;
64875;SDS011;51369;49.862;9.908;2023-09-08T01:06:06;8.60;;;5.53;;
64875;SDS011;51369;49.862;9.908;2023-09-08T01:08:31;14.23;;;5.47;;
64875;SDS011;51369;49.862;9.908;2023-09-08T01:10:56;9.98;;;5.03;;
64875;SDS011;51369;49.862;9.908;2023-09-08T01:13:22;8.55;;;5.20;;
64875;SDS011;51369;49.862;9.908;2023-09-08T01:15:48;6.47;;;5.20;;
64875;SDS011;51369;49.862;9.908;2023-09-08T01:18:14;7.40;;;5.53;;
64875;SDS011;51369;49.862;9.908;2023-09-08T01:23:51;6.63;;;5.63;;
64875;SDS011;51369;49.862;9.908;2023-09-08T01:26:18;10.88;;;5.22;;
64875;SDS011;51369;49.862;9.908;2023-09-08T01:28:49;9.13;;;4.93;;
64875;SDS011;51369;49.862;9.908;2023-09-08T01:31:15;6.35;;;5.72;;
64875;SDS011;51369;49.862;9.908;2023-09-08T01:33:41;13.68;;;5.90;;
64875;SDS011;51369;49.862;9.908;2023-09-08T01:36:08;9.48;;;5.43;;
64875;SDS011;51369;49.862;9.908;2023-09-08T01:38:33;6.38;;;5.53;;
64875;SDS011;51369;49.862;9.908;2023-09-08T01:40:59;7.18;;;5.43;;
64875;SDS011;51369;49.862;9.908;2023-09-08T01:43:26;7.82;;;5.13;;
64875;SDS011;51369;49.862;9.908;2023-09-08T01:45:52;8.93;;;4.88;;
64875;SDS011;51369;49.862;9.908;2023-09-08T01:48:17;8.20;;;5.38;;
64875;SDS011;51369;49.862;9.908;2023-09-08T01:50:43;8.15;;;5.32;;
64875;SDS011;51369;49.862;9.908;2023-09-08T01:53:08;8.13;;;5.57;;
64875;SDS011;51369;49.862;9.908;2023-09-08T01:55:33;6.28;;;5.28;;
64875;SDS011;51369;49.862;9.908;2023-09-08T01:57:59;6.30;;;4.75;;
64875;SDS011;51369;49.862;9.908;2023-09-08T02:00:24;11.32;;;5.78;;
64875;SDS011;51369;49.862;9.908;2023-09-08T02:02:50;7.50;;;5.47;;
64875;SDS011;51369;49.862;9.908;2023-09-08T02:05:15;11.05;;;5.07;;
64875;SDS011;51369;49.862;9.908;2023-09-08T02:07:41;7.72;;;5.32;;
64875;SDS011;51369;49.862;9.908;2023-09-08T02:10:06;9.68;;;5.50;;
64875;SDS011;51369;49.862;9.908;2023-09-08T02:12:32;5.80;;;5.18;;
64875;SDS011;51369;49.862;9.908;2023-09-08T02:14:57;9.20;;;5.13;;
64875;SDS011;51369;49.862;9.908;2023-09-08T02:17:22;12.88;;;6.18;;
64875;SDS011;51369;49.862;9.908;2023-09-08T02:19:48;10.32;;;5.50;;
64875;SDS011;51369;49.862;9.908;2023-09-08T02:22:13;13.82;;;5.30;;
64875;SDS011;51369;49.862;9.908;2023-09-08T02:24:39;13.25;;;5.35;;
64875;SDS011;51369;49.862;9.908;2023-09-08T02:27:04;7.15;;;5.88;;
64875;SDS011;51369;49.862;9.908;2023-09-08T02:29:30;10.77;;;5.50;;
64875;SDS011;51369;49.862;9.908;2023-09-08T02:31:56;10.02;;;5.65;;
64875;SDS011;51369;49.862;9.908;2023-09-08T02:34:21;8.35;;;5.75;;
64875;SDS011;51369;49.862;9.908;2023-09-08T02:36:47;7.82;;;5.90;;
64875;SDS011;51369;49.862;9.908;2023-09-08T02:39:14;10.00;;;5.57;;
64875;SDS011;51369;49.862;9.908;2023-09-08T02:41:39;10.88;;;5.70;;
64875;SDS011;51369;49.862;9.908;2023-09-08T02:44:05;11.48;;;5.70;;
64875;SDS011;51369;49.862;9.908;2023-09-08T02:46:31;10.45;;;5.45;;
64875;SDS011;51369;49.862;9.908;2023-09-08T02:48:56;7.38;;;5.28;;
64875;SDS011;51369;49.862;9.908;2023-09-08T02:51:21;11.75;;;5.40;;
64875;SDS011;51369;49.862;9.908;2023-09-08T02:53:47;11.18;;;5.40;;
64875;SDS011;51369;49.862;9.908;2023-09-08T02:56:12;6.85;;;5.13;;
64875;SDS011;51369;49.862;9.908;2023-09-08T02:58:38;6.60;;;5.78;;
64875;SDS011;51369;49.862;9.908;2023-09-08T03:01:13;10.60;;;5.50;;
64875;SDS011;51369;49.862;9.908;2023-09-08T03:03:45;6.05;;;5.10;;
64875;SDS011;51369;49.862;9.908;2023-09-08T03:06:11;10.75;;;6.85;;
64875;SDS011;51369;49.862;9.908;2023-09-08T03:08:38;10.65;;;5.45;;
64875;SDS011;51369;49.862;9.908;2023-09-08T03:11:04;9.18;;;6.20;;
64875;SDS011;51369;49.862;9.908;2023-09-08T03:13:33;8.55;;;6.10;;
64875;SDS011;51369;49.862;9.908;2023-09-08T03:16:05;11.15;;;5.75;;
64875;SDS011;51369;49.862;9.908;2023-09-08T03:18:35;7.28;;;5.68;;
64875;SDS011;51369;49.862;9.908;2023-09-08T03:21:06;7.90;;;6.40;;
64875;SDS011;51369;49.862;9.908;2023-09-08T03:23:37;10.18;;;5.72;;
64875;SDS011;51369;49.862;9.908;2023-09-08T03:26:06;9.18;;;6.00;;
64875;SDS011;51369;49.862;9.908;2023-09-08T03:28:33;7.88;;;6.22;;
64875;SDS011;51369;49.862;9.908;2023-09-08T03:31:03;9.77;;;5.85;;
64875;SDS011;51369;49.862;9.908;2023-09-08T03:33:31;7.55;;;6.13;;
64875;SDS011;51369;49.862;9.908;2023-09-08T03:35:58;9.45;;;5.50;;
64875;SDS011;51369;49.862;9.908;2023-09-08T03:38:23;7.03;;;5.40;;
64875;SDS011;51369;49.862;9.908;2023-09-08T03:40:49;8.43;;;5.90;;
64875;SDS011;51369;49.862;9.908;2023-09-08T03:43:15;8.40;;;6.63;;
64875;SDS011;51369;49.862;9.908;2023-09-08T03:45:40;8.07;;;6.30;;
64875;SDS011;51369;49.862;9.908;2023-09-08T03:48:07;7.75;;;6.07;;
64875;SDS011;51369;49.862;9.908;2023-09-08T03:50:33;8.07;;;6.32;;
64875;SDS011;51369;49.862;9.908;2023-09-08T03:52:58;11.15;;;6.22;;
64875;SDS011;51369;49.862;9.908;2023-09-08T03:55:24;10.20;;;5.80;;
64875;SDS011;51369;49.862;9.908;2023-09-08T03:57:49;11.73;;;6.38;;
64875;SDS011;51369;49.862;9.908;2023-09-08T04:00:14;9.55;;;6.00;;
64875;SDS011;51369;49.862;9.908;2023-09-08T04:02:46;13.15;;;6.25;;
64875;SDS011;51369;49.862;9.908;2023-09-08T04:05:12;6.90;;;5.82;;
64875;SDS011;51369;49.862;9.908;2023-09-08T04:07:37;7.70;;;6.13;;
64875;SDS011;51369;49.862;9.908;2023-09-08T04:10:03;11.50;;;6.20;;
64875;SDS011;51369;49.862;9.908;2023-09-08T04:12:28;15.75;;;5.85;;
64875;SDS011;51369;49.862;9.908;2023-09-08T04:14:54;14.32;;;10.10;;
64875;SDS011;51369;49.862;9.908;2023-09-08T04:17:19;9.57;;;7.00;;
64875;SDS011;51369;49.862;9.908;2023-09-08T04:19:45;7.80;;;6.20;;
64875;SDS011;51369;49.862;9.908;2023-09-08T04:22:10;10.75;;;6.40;;
64875;SDS011;51369;49.862;9.908;2023-09-08T04:24:36;8.07;;;6.43;;
64875;SDS011;51369;49.862;9.908;2023-09-08T04:27:02;7.65;;;6.28;;
64875;SDS011;51369;49.862;9.908;2023-09-08T04:29:28;8.57;;;6.20;;
64875;SDS011;51369;49.862;9.908;2023-09-08T04:31:53;9.68;;;6.38;;
64875;SDS011;51369;49.862;9.908;2023-09-08T04:34:19;9.68;;;7.45;;
64875;SDS011;51369;49.862;9.908;2023-09-08T04:36:44;11.32;;;6.53;;
64875;SDS011;51369;49.862;9.908;2023-09-08T04:39:10;14.90;;;6.28;;
64875;SDS011;51369;49.862;9.908;2023-09-08T04:41:36;10.73;;;7.10;;
64875;SDS011;51369;49.862;9.908;2023-09-08T04:44:02;7.65;;;5.75;;
64875;SDS011;51369;49.862;9.908;2023-09-08T04:46:28;8.75;;;6.25;;
64875;SDS011;51369;49.862;9.908;2023-09-08T04:48:53;10.63;;;6.20;;
64875;SDS011;51369;49.862;9.908;2023-09-08T04:51:21;10.98;;;7.10;;
64875;SDS011;51369;49.862;9.908;2023-09-08T04:53:46;7.60;;;6.03;;
64875;SDS011;51369;49.862;9.908;2023-09-08T04:56:13;12.82;;;7.03;;
64875;SDS011;51369;49.862;9.908;2023-09-08T04:58:39;7.93;;;5.97;;
64875;SDS011;51369;49.862;9.908;2023-09-08T05:01:04;8.70;;;7.05;;
64875;SDS011;51369;49.862;9.908;2023-09-08T05:03:30;8.85;;;7.03;;
64875;SDS011;51369;49.862;9.908;2023-09-08T05:05:56;9.15;;;6.35;;
64875;SDS011;51369;49.862;9.908;2023-09-08T05:08:22;8.68;;;6.60;;
64875;SDS011;51369;49.862;9.908;2023-09-08T05:10:48;11.18;;;6.30;;
64875;SDS011;51369;49.862;9.908;2023-09-08T05:13:16;10.25;;;6.28;;
64875;SDS011;51369;49.862;9.908;2023-09-08T05:15:42;7.10;;;6.40;;
64875;SDS011;51369;49.862;9.908;2023-09-08T05:18:09;9.07;;;6.50;;
64875;SDS011;51369;49.862;9.908;2023-09-08T05:20:34;8.38;;;6.63;;
64875;SDS011;51369;49.862;9.908;2023-09-08T05:23:00;9.63;;;6.18;;
64875;SDS011;51369;49.862;9.908;2023-09-08T05:25:25;11.23;;;6.72;;
64875;SDS011;51369;49.862;9.908;2023-09-08T05:27:51;10.77;;;6.80;;
64875;SDS011;51369;49.862;9.908;2023-09-08T05:30:16;8.00;;;6.43;;
64875;SDS011;51369;49.862;9.908;2023-09-08T05:32:42;9.30;;;7.15;;
64875;SDS011;51369;49.862;9.908;2023-09-08T05:35:07;8.07;;;6.75;;
64875;SDS011;51369;49.862;9.908;2023-09-08T05:37:33;11.07;;;6.68;;
64875;SDS011;51369;49.862;9.908;2023-09-08T05:39:58;12.40;;;7.15;;
64875;SDS011;51369;49.862;9.908;2023-09-08T05:42:24;10.70;;;7.53;;
64875;SDS011;51369;49.862;9.908;2023-09-08T05:44:49;12.93;;;7.22;;
64875;SDS011;51369;49.862;9.908;2023-09-08T05:47:15;8.38;;;6.75;;
64875;SDS011;51369;49.862;9.908;2023-09-08T05:49:40;8.80;;;7.28;;
64875;SDS011;51369;49.862;9.908;2023-09-08T05:52:06;8.43;;;7.13;;
64875;SDS011;51369;49.862;9.908;2023-09-08T05:54:32;9.40;;;7.07;;
64875;SDS011;51369;49.862;9.908;2023-09-08T05:56:58;9.15;;;7.07;;
64875;SDS011;51369;49.862;9.908;2023-09-08T05:59:24;17.88;;;7.50;;
64875;SDS011;51369;49.862;9.908;2023-09-08T06:01:49;10.07;;;7.47;;
64875;SDS011;51369;49.862;9.908;2023-09-08T06:04:16;8.63;;;7.28;;
64875;SDS011;51369;49.862;9.908;2023-09-08T06:06:42;11.40;;;7.82;;
64875;SDS011;51369;49.862;9.908;2023-09-08T06:09:07;12.85;;;7.72;;
64875;SDS011;51369;49.862;9.908;2023-09-08T06:11:34;8.88;;;7.18;;
64875;SDS011;51369;49.862;9.908;2023-09-08T06:14:00;7.85;;;7.05;;
64875;SDS011;51369;49.862;9.908;2023-09-08T06:16:27;8.57;;;6.75;;
64875;SDS011;51369;49.862;9.908;2023-09-08T06:18:52;9.82;;;6.93;;
64875;SDS011;51369;49.862;9.908;2023-09-08T06:21:19;15.50;;;6.82;;
64875;SDS011;51369;49.862;9.908;2023-09-08T06:23:44;12.43;;;7.38;;
64875;SDS011;51369;49.862;9.908;2023-09-08T06:26:11;11.43;;;7.38;;
64875;SDS011;51369;49.862;9.908;2023-09-08T06:28:37;8.25;;;6.90;;
64875;SDS011;51369;49.862;9.908;2023-09-08T06:31:04;8.85;;;7.20;;
64875;SDS011;51369;49.862;9.908;2023-09-08T06:33:29;8.80;;;6.85;;
64875;SDS011;51369;49.862;9.908;2023-09-08T06:35:55;13.52;;;6.88;;
64875;SDS011;51369;49.862;9.908;2023-09-08T06:38:21;10.48;;;7.72;;
64875;SDS011;51369;49.862;9.908;2023-09-08T06:40:46;10.48;;;7.07;;
64875;SDS011;51369;49.862;9.908;2023-09-08T06:43:13;11.73;;;7.00;;
64875;SDS011;51369;49.862;9.908;2023-09-08T06:45:51;9.88;;;7.00;;
64875;SDS011;51369;49.862;9.908;2023-09-08T06:48:17;10.65;;;7.13;;
64875;SDS011;51369;49.862;9.908;2023-09-08T06:50:42;8.95;;;6.97;;
64875;SDS011;51369;49.862;9.908;2023-09-08T06:53:08;13.15;;;7.70;;
64875;SDS011;51369;49.862;9.908;2023-09-08T06:55:34;10.70;;;7.05;;
64875;SDS011;51369;49.862;9.908;2023-09-08T06:57:59;9.00;;;7.47;;
64875;SDS011;51369;49.862;9.908;2023-09-08T07:00:25;10.23;;;6.50;;
64875;SDS011;51369;49.862;9.908;2023-09-08T07:02:51;9.45;;;7.05;;
64875;SDS011;51369;49.862;9.908;2023-09-08T07:05:17;11.77;;;7.47;;
64875;SDS011;51369;49.862;9.908;2023-09-08T07:07:43;7.18;;;6.43;;
64875;SDS011;51369;49.862;9.908;2023-09-08T07:10:09;8.45;;;7.25;;
64875;SDS011;51369;49.862;9.908;2023-09-08T07:12:35;10.32;;;7.70;;
64875;SDS011;51369;49.862;9.908;2023-09-08T07:15:01;10.48;;;7.20;;
64875;SDS011;51369;49.862;9.908;2023-09-08T07:17:26;7.93;;;7.07;;
64875;SDS011;51369;49.862;9.908;2023-09-08T07:19:52;12.65;;;7.47;;
64875;SDS011;51369;49.862;9.908;2023-09-08T07:22:19;11.60;;;7.10;;
64875;SDS011;51369;49.862;9.908;2023-09-08T07:24:44;11.80;;;6.80;;
64875;SDS011;51369;49.862;9.908;2023-09-08T07:27:10;8.20;;;7.07;;
64875;SDS011;51369;49.862;9.908;2023-09-08T07:29:39;12.63;;;6.57;;
64875;SDS011;51369;49.862;9.908;2023-09-08T07:32:05;9.68;;;6.32;;
64875;SDS011;51369;49.862;9.908;2023-09-08T07:34:30;12.40;;;7.10;;
64875;SDS011;51369;49.862;9.908;2023-09-08T07:36:56;11.32;;;7.22;;
64875;SDS011;51369;49.862;9.908;2023-09-08T07:39:21;10.15;;;6.57;;
64875;SDS011;51369;49.862;9.908;2023-09-08T07:41:46;10.13;;;7.95;;
64875;SDS011;51369;49.862;9.908;2023-09-08T07:44:12;8.23;;;7.28;;
64875;SDS011;51369;49.862;9.908;2023-09-08T07:46:38;7.75;;;6.40;;
64875;SDS011;51369;49.862;9.908;2023-09-08T07:49:03;12.65;;;7.35;;
64875;SDS011;51369;49.862;9.908;2023-09-08T07:51:29;9.63;;;6.57;;
64875;SDS011;51369;49.862;9.908;2023-09-08T07:53:55;10.20;;;6.93;;
64875;SDS011;51369;49.862;9.908;2023-09-08T07:56:21;9.32;;;6.55;;
64875;SDS011;51369;49.862;9.908;2023-09-08T07:58:46;11.57;;;6.75;;
64875;SDS011;51369;49.862;9.908;2023-09-08T08:01:12;14.48;;;6.90;;
64875;SDS011;51369;49.862;9.908;2023-09-08T08:03:38;10.20;;;7.22;;
64875;SDS011;51369;49.862;9.908;2023-09-08T08:06:04;8.02;;;6.68;;
64875;SDS011;51369;49.862;9.908;2023-09-08T08:08:30;9.55;;;6.00;;
64875;SDS011;51369;49.862;9.908;2023-09-08T08:10:56;7.25;;;5.82;;
64875;SDS011;51369;49.862;9.908;2023-09-08T08:13:21;9.40;;;6.13;;
64875;SDS011;51369;49.862;9.908;2023-09-08T08:15:46;9.15;;;5.55;;
64875;SDS011;51369;49.862;9.908;2023-09-08T08:18:12;8.07;;;6.75;;
64875;SDS011;51369;49.862;9.908;2023-09-08T08:20:38;14.73;;;7.43;;
64875;SDS011;51369;49.862;9.908;2023-09-08T08:23:04;11.02;;;5.65;;
64875;SDS011;51369;49.862;9.908;2023-09-08T08:25:30;8.18;;;6.00;;
64875;SDS011;51369;49.862;9.908;2023-09-08T08:27:57;9.23;;;6.45;;
64875;SDS011;51369;49.862;9.908;2023-09-08T08:30:24;8.65;;;6.85;;
64875;SDS011;51369;49.862;9.908;2023-09-08T08:32:49;6.50;;;5.80;;
64875;SDS011;51369;49.862;9.908;2023-09-08T08:35:16;9.82;;;7.00;;
64875;SDS011;51369;49.862;9.908;2023-09-08T08:37:42;7.25;;;6.13;;
64875;SDS011;51369;49.862;9.908;2023-09-08T08:40:09;8.90;;;6.32;;
64875;SDS011;51369;49.862;9.908;2023-09-08T08:42:38;10.63;;;5.55;;
64875;SDS011;51369;49.862;9.908;2023-09-08T08:45:05;9.52;;;6.80;;
64875;SDS011;51369;49.862;9.908;2023-09-08T08:47:31;9.00;;;5.93;;
64875;SDS011;51369;49.862;9.908;2023-09-08T08:49:57;12.35;;;6.32;;
64875;SDS011;51369;49.862;9.908;2023-09-08T08:52:23;9.05;;;5.90;;
64875;SDS011;51369;49.862;9.908;2023-09-08T08:54:52;7.35;;;6.57;;
64875;SDS011;51369;49.862;9.908;2023-09-08T08:57:18;8.60;;;6.45;;
64875;SDS011;51369;49.862;9.908;2023-09-08T08:59:45;7.88;;;6.28;;
64875;SDS011;51369;49.862;9.908;2023-09-08T09:02:13;13.45;;;6.35;;
64875;SDS011;51369;49.862;9.908;2023-09-08T09:04:39;6.28;;;5.38;;
64875;SDS011;51369;49.862;9.908;2023-09-08T09:07:06;8.45;;;6.20;;
64875;SDS011;51369;49.862;9.908;2023-09-08T09:09:32;8.00;;;6.22;;
64875;SDS011;51369;49.862;9.908;2023-09-08T09:11:58;6.60;;;5.90;;
64875;SDS011;51369;49.862;9.908;2023-09-08T09:14:24;14.73;;;6.47;;
64875;SDS011;51369;49.862;9.908;2023-09-08T09:16:50;9.82;;;6.53;;
64875;SDS011;51369;49.862;9.908;2023-09-08T09:19:19;9.50;;;6.35;;
64875;SDS011;51369;49.862;9.908;2023-09-08T09:21:50;10.38;;;6.55;;
64875;SDS011;51369;49.862;9.908;2023-09-08T09:24:32;6.43;;;5.68;;
64875;SDS011;51369;49.862;9.908;2023-09-08T09:27:01;8.80;;;6.53;;
64875;SDS011;51369;49.862;9.908;2023-09-08T09:29:29;8.05;;;5.63;;
64875;SDS011;51369;49.862;9.908;2023-09-08T09:31:56;6.60;;;5.57;;
64875;SDS011;51369;49.862;9.908;2023-09-08T09:34:26;7.57;;;5.35;;
64875;SDS011;51369;49.862;9.908;2023-09-08T09:36:52;8.10;;;5.63;;
64875;SDS011;51369;49.862;9.908;2023-09-08T09:39:22;23.30;;;5.78;;
64875;SDS011;51369;49.862;9.908;2023-09-08T09:41:49;14.77;;;5.50;;
64875;SDS011;51369;49.862;9.908;2023-09-08T09:44:18;6.07;;;4.85;;
64875;SDS011;51369;49.862;9.908;2023-09-08T09:46:44;10.98;;;5.45;;
64875;SDS011;51369;49.862;9.908;2023-09-08T09:49:15;10.38;;;5.50;;
64875;SDS011;51369;49.862;9.908;2023-09-08T09:51:47;8.43;;;5.95;;
64875;SDS011;51369;49.862;9.908;2023-09-08T09:54:16;6.82;;;5.80;;
64875;SDS011;51369;49.862;9.908;2023-09-08T09:56:42;7.30;;;5.82;;
64875;SDS011;51369;49.862;9.908;2023-09-08T09:59:09;7.93;;;5.57;;
64875;SDS011;51369;49.862;9.908;2023-09-08T10:01:36;7.60;;;5.35;;
64875;SDS011;51369;49.862;9.908;2023-09-08T10:04:03;10.57;;;4.95;;
64875;SDS011;51369;49.862;9.908;2023-09-08T10:06:33;5.80;;;5.13;;
64875;SDS011;51369;49.862;9.908;2023-09-08T10:09:00;8.50;;;4.90;;
64875;SDS011;51369;49.862;9.908;2023-09-08T10:11:33;6.80;;;5.20;;
64875;SDS011;51369;49.862;9.908;2023-09-08T10:14:20;5.82;;;5.15;;
64875;SDS011;51369;49.862;9.908;2023-09-08T10:16:47;9.93;;;5.93;;
64875;SDS011;51369;49.862;9.908;2023-09-08T10:19:17;8.40;;;5.85;;
64875;SDS011;51369;49.862;9.908;2023-09-08T10:21:47;8.63;;;5.57;;
64875;SDS011;51369;49.862;9.908;2023-09-08T10:24:17;7.10;;;5.68;;
64875;SDS011;51369;49.862;9.908;2023-09-08T10:26:51;9.20;;;5.32;;
64875;SDS011;51369;49.862;9.908;2023-09-08T10:29:23;6.93;;;5.53;;
64875;SDS011;51369;49.862;9.908;2023-09-08T10:31:49;7.10;;;4.53;;
64875;SDS011;51369;49.862;9.908;2023-09-08T10:34:15;7.57;;;5.55;;
64875;SDS011;51369;49.862;9.908;2023-09-08T10:36:43;8.95;;;5.30;;
64875;SDS011;51369;49.862;9.908;2023-09-08T10:50:04;10.38;;;5.78;;
64875;SDS011;51369;49.862;9.908;2023-09-08T10:52:30;7.32;;;5.15;;
64875;SDS011;51369;49.862;9.908;2023-09-08T10:54:58;6.85;;;5.60;;
64875;SDS011;51369;49.862;9.908;2023-09-08T10:57:24;6.68;;;5.35;;
64875;SDS011;51369;49.862;9.908;2023-09-08T10:59:51;6.93;;;5.32;;
64875;SDS011;51369;49.862;9.908;2023-09-08T11:05:03;7.93;;;5.28;;
64875;SDS011;51369;49.862;9.908;2023-09-08T11:07:31;6.00;;;4.95;;
64875;SDS011;51369;49.862;9.908;2023-09-08T11:09:58;5.80;;;5.30;;
64875;SDS011;51369;49.862;9.908;2023-09-08T11:12:28;5.55;;;4.78;;
64875;SDS011;51369;49.862;9.908;2023-09-08T11:14:54;5.80;;;4.82;;
64875;SDS011;51369;49.862;9.908;2023-09-08T11:17:20;8.20;;;5.70;;
64875;SDS011;51369;49.862;9.908;2023-09-08T11:19:49;6.60;;;5.03;;
64875;SDS011;51369;49.862;9.908;2023-09-08T11:22:15;6.53;;;4.93;;
64875;SDS011;51369;49.862;9.908;2023-09-08T11:24:42;10.63;;;5.57;;
64875;SDS011;51369;49.862;9.908;2023-09-08T11:27:08;8.23;;;4.97;;
64875;SDS011;51369;49.862;9.908;2023-09-08T11:29:34;5.80;;;5.20;;
64875;SDS011;51369;49.862;9.908;2023-09-08T11:32:00;5.63;;;5.03;;
64875;SDS011;51369;49.862;9.908;2023-09-08T11:34:25;11.63;;;5.57;;
64875;SDS011;51369;49.862;9.908;2023-09-08T11:36:51;5.70;;;5.13;;
64875;SDS011;51369;49.862;9.908;2023-09-08T11:39:18;9.10;;;5.82;;
64875;SDS011;51369;49.862;9.908;2023-09-08T11:41:43;9.02;;;5.55;;
64875;SDS011;51369;49.862;9.908;2023-09-08T11:44:09;11.27;;;5.60;;
64875;SDS011;51369;49.862;9.908;2023-09-08T11:46:34;6.07;;;5.13;;
64875;SDS011;51369;49.862;9.908;2023-09-08T11:49:00;7.45;;;5.05;;
64875;SDS011;51369;49.862;9.908;2023-09-08T11:51:26;6.40;;;4.90;;
64875;SDS011;51369;49.862;9.908;2023-09-08T11:53:52;5.20;;;4.70;;
64875;SDS011;51369;49.862;9.908;2023-09-08T11:56:18;7.03;;;4.97;;
64875;SDS011;51369;49.862;9.908;2023-09-08T11:58:44;5.60;;;4.95;;
64875;SDS011;51369;49.862;9.908;2023-09-08T12:01:10;6.28;;;4.78;;
64875;SDS011;51369;49.862;9.908;2023-09-08T12:03:38;7.18;;;5.50;;
64875;SDS011;51369;49.862;9.908;2023-09-08T12:06:16;7.60;;;5.03;;
64875;SDS011;51369;49.862;9.908;2023-09-08T12:08:41;6.50;;;4.40;;
64875;SDS011;51369;49.862;9.908;2023-09-08T12:11:07;5.68;;;5.18;;
64875;SDS011;51369;49.862;9.908;2023-09-08T12:13:33;7.90;;;4.47;;
64875;SDS011;51369;49.862;9.908;2023-09-08T12:15:59;5.72;;;4.47;;
64875;SDS011;51369;49.862;9.908;2023-09-08T12:18:37;8.10;;;4.85;;
64875;SDS011;51369;49.862;9.908;2023-09-08T12:21:04;9.98;;;4.85;;
64875;SDS011;51369;49.862;9.908;2023-09-08T12:23:32;4.93;;;4.43;;
64875;SDS011;51369;49.862;9.908;2023-09-08T12:25:57;7.25;;;4.35;;
64875;SDS011;51369;49.862;9.908;2023-09-08T12:28:23;5.75;;;4.47;;
64875;SDS011;51369;49.862;9.908;2023-09-08T12:30:55;5.72;;;4.00;;
64875;SDS011;51369;49.862;9.908;2023-09-08T12:33:21;7.20;;;4.85;;
64875;SDS011;51369;49.862;9.908;2023-09-08T12:35:46;4.68;;;4.28;;
64875;SDS011;51369;49.862;9.908;2023-09-08T12:38:17;6.50;;;4.22;;
64875;SDS011;51369;49.862;9.908;2023-09-08T12:40:43;4.40;;;3.90;;
64875;SDS011;51369;49.862;9.908;2023-09-08T12:43:08;6.60;;;4.15;;
64875;SDS011;51369;49.862;9.908;2023-09-08T12:45:34;4.88;;;4.38;;
64875;SDS011;51369;49.862;9.908;2023-09-08T12:47:59;7.38;;;3.63;;
64875;SDS011;51369;49.862;9.908;2023-09-08T12:50:29;5.03;;;4.07;;
64875;SDS011;51369;49.862;9.908;2023-09-08T12:52:55;5.20;;;3.90;;
64875;SDS011;51369;49.862;9.908;2023-09-08T12:55:20;4.03;;;3.70;;
64875;SDS011;51369;49.862;9.908;2023-09-08T12:57:47;4.97;;;4.13;;
64875;SDS011;51369;49.862;9.908;2023-09-08T13:00:13;4.03;;;3.72;;
64875;SDS011;51369;49.862;9.908;2023-09-08T13:02:39;5.97;;;3.55;;
64875;SDS011;51369;49.862;9.908;2023-09-08T13:05:05;5.55;;;4.30;;
64875;SDS011;51369;49.862;9.908;2023-09-08T13:07:30;4.28;;;3.88;;
64875;SDS011;51369;49.862;9.908;2023-09-08T13:09:56;5.18;;;4.07;;
64875;SDS011;51369;49.862;9.908;2023-09-08T13:12:21;4.75;;;3.70;;
64875;SDS011;51369;49.862;9.908;2023-09-08T13:14:47;8.23;;;4.40;;
64875;SDS011;51369;49.862;9.908;2023-09-08T13:17:12;5.10;;;4.57;;
64875;SDS011;51369;49.862;9.908;2023-09-08T13:19:38;4.32;;;3.92;;
64875;SDS011;51369;49.862;9.908;2023-09-08T13:22:05;4.25;;;3.88;;
64875;SDS011;51369;49.862;9.908;2023-09-08T13:24:30;5.05;;;3.95;;
64875;SDS011;51369;49.862;9.908;2023-09-08T13:26:56;4.10;;;3.78;;
64875;SDS011;51369;49.862;9.908;2023-09-08T13:29:21;4.07;;;3.67;;
64875;SDS011;51369;49.862;9.908;2023-09-08T13:31:47;4.35;;;3.95;;
64875;SDS011;51369;49.862;9.908;2023-09-08T13:34:12;4.63;;;4.20;;
64875;SDS011;51369;49.862;9.908;2023-09-08T13:36:38;4.43;;;3.92;;
64875;SDS011;51369;49.862;9.908;2023-09-08T13:39:03;5.82;;;4.35;;
64875;SDS011;51369;49.862;9.908;2023-09-08T13:41:45;4.50;;;4.10;;
64875;SDS011;51369;49.862;9.908;2023-09-08T13:44:10;5.05;;;4.05;;
64875;SDS011;51369;49.862;9.908;2023-09-08T13:46:35;5.35;;;3.88;;
64875;SDS011;51369;49.862;9.908;2023-09-08T13:49:01;5.68;;;4.15;;
64875;SDS011;51369;49.862;9.908;2023-09-08T13:51:26;6.32;;;4.15;;
64875;SDS011;51369;49.862;9.908;2023-09-08T13:53:51;6.22;;;3.90;;
64875;SDS011;51369;49.862;9.908;2023-09-08T13:56:17;8.73;;;4.55;;
64875;SDS011;51369;49.862;9.908;2023-09-08T13:58:43;4.80;;;4.40;;
64875;SDS011;51369;49.862;9.908;2023-09-08T14:01:10;7.47;;;4.40;;
64875;SDS011;51369;49.862;9.908;2023-09-08T14:03:36;5.25;;;4.03;;
64875;SDS011;51369;49.862;9.908;2023-09-08T14:06:01;6.80;;;4.20;;
64875;SDS011;51369;49.862;9.908;2023-09-08T14:08:28;5.18;;;4.03;;
64875;SDS011;51369;49.862;9.908;2023-09-08T14:10:53;8.73;;;3.92;;
64875;SDS011;51369;49.862;9.908;2023-09-08T14:13:19;4.97;;;3.88;;
64875;SDS011;51369;49.862;9.908;2023-09-08T14:15:44;4.60;;;4.20;;
64875;SDS011;51369;49.862;9.908;2023-09-08T14:18:10;6.22;;;4.60;;
64875;SDS011;51369;49.862;9.908;2023-09-08T14:20:35;5.95;;;4.15;;
64875;SDS011;51369;49.862;9.908;2023-09-08T14:23:01;5.47;;;3.70;;
64875;SDS011;51369;49.862;9.908;2023-09-08T14:25:27;6.65;;;4.53;;
64875;SDS011;51369;49.862;9.908;2023-09-08T14:27:53;4.45;;;3.72;;
64875;SDS011;51369;49.862;9.908;2023-09-08T14:30:18;5.80;;;3.50;;
64875;SDS011;51369;49.862;9.908;2023-09-08T14:32:43;6.22;;;3.40;;
64875;SDS011;51369;49.862;9.908;2023-09-08T14:35:09;4.30;;;3.90;;
64875;SDS011;51369;49.862;9.908;2023-09-08T14:37:34;5.07;;;4.40;;
64875;SDS011;51369;49.862;9.908;2023-09-08T14:40:00;6.38;;;3.95;;
64875;SDS011;51369;49.862;9.908;2023-09-08T14:42:25;5.82;;;4.50;;
64875;SDS011;51369;49.862;9.908;2023-09-08T14:44:50;5.15;;;4.40;;
64875;SDS011;51369;49.862;9.908;2023-09-08T14:47:16;7.18;;;4.50;;
64875;SDS011;51369;49.862;9.908;2023-09-08T14:49:43;8.38;;;4.25;;
64875;SDS011;51369;49.862;9.908;2023-09-08T14:52:08;4.50;;;4.10;;
64875;SDS011;51369;49.862;9.908;2023-09-08T14:54:34;5.22;;;4.40;;